Terminal Aerodrome Forecast
Issued by NWS Louisville, KY

Home | Current Version | Previous Version | Text Only | Print | Product List | Glossary On
Versions: 1 2 3 4 5 6 7 8 9 10 11 12 13 14 15 16 17 18 19 20 21 22
149
FTUS43 KLMK 191739
TAFSDF
TAF
KSDF 191739Z 1918/2024 20015G27KT P6SM SCT045 SCT080
     FM200000 18010KT P6SM BKN250 WS020/20045KT
     FM200600 19012KT P6SM BKN060 WS020/21048KT
     FM201300 19014G25KT P6SM BKN080
     FM201600 20017G29KT P6SM SCT040 BKN250=

USA.gov is the U.S. government's official web portal to all federal, state and local government web resources and services.